createdAt,value
2019-05-19T00:00:31.408Z,7.93
2019-05-19T00:01:57.432Z,7.53
2019-05-19T00:03:23.015Z,7.33
2019-05-19T00:04:49.017Z,8.57
2019-05-19T00:06:14.692Z,8.37
2019-05-19T00:07:40.719Z,9.67
2019-05-19T00:09:07.446Z,8.20
2019-05-19T00:10:33.438Z,6.90
2019-05-19T00:11:59.149Z,8.43
2019-05-19T00:13:25.203Z,7.77
2019-05-19T00:14:50.846Z,8.93
2019-05-19T00:16:17.080Z,7.63
2019-05-19T00:17:42.554Z,9.00
2019-05-19T00:19:08.691Z,6.50
2019-05-19T00:20:34.341Z,7.43
2019-05-19T00:22:00.463Z,8.13
2019-05-19T00:23:26.007Z,7.90
2019-05-19T00:24:52.064Z,7.07
2019-05-19T00:26:17.696Z,7.80
2019-05-19T00:27:43.704Z,7.13
2019-05-19T00:29:09.628Z,9.00
2019-05-19T00:30:35.695Z,7.57
2019-05-19T00:32:01.299Z,6.47
2019-05-19T00:33:27.415Z,8.90
2019-05-19T00:34:52.895Z,7.50
2019-05-19T00:36:19.690Z,8.00
2019-05-19T00:37:45.390Z,7.20
2019-05-19T00:39:11.397Z,7.87
2019-05-19T00:40:37.110Z,6.60
2019-05-19T00:42:03.358Z,8.80
2019-05-19T00:43:28.911Z,7.80
2019-05-19T00:44:55.031Z,8.00
2019-05-19T00:46:20.651Z,7.43
2019-05-19T00:47:46.702Z,9.07
2019-05-19T00:49:12.357Z,8.47
2019-05-19T00:50:38.447Z,9.70
2019-05-19T00:52:04.191Z,9.00
2019-05-19T00:53:30.303Z,7.10
2019-05-19T00:54:55.848Z,7.90
2019-05-19T00:56:22.756Z,7.77
2019-05-19T00:57:48.565Z,8.90
2019-05-19T00:59:15.078Z,10.00
2019-05-19T01:00:40.680Z,8.43
2019-05-19T01:02:07.309Z,8.43
2019-05-19T01:03:32.771Z,7.60
2019-05-19T01:04:58.824Z,8.23
2019-05-19T01:06:24.299Z,7.87
2019-05-19T01:07:50.410Z,5.90
2019-05-19T01:09:15.893Z,7.13
2019-05-19T01:10:41.974Z,9.33
2019-05-19T01:12:07.682Z,7.77
2019-05-19T01:13:33.803Z,7.63
2019-05-19T01:14:59.264Z,8.33
2019-05-19T01:16:25.315Z,7.07
2019-05-19T01:17:52.325Z,7.60
2019-05-19T01:19:18.449Z,7.30
2019-05-19T01:20:44.195Z,7.83
2019-05-19T01:22:11.109Z,6.83
2019-05-19T01:23:36.536Z,8.87
2019-05-19T01:25:02.614Z,6.70
2019-05-19T01:26:28.104Z,7.40
2019-05-19T01:27:54.143Z,7.30
2019-05-19T01:29:19.741Z,6.47
2019-05-19T01:30:45.889Z,7.27
2019-05-19T01:32:11.460Z,7.53
2019-05-19T01:33:37.616Z,7.27
2019-05-19T01:35:03.269Z,8.67
2019-05-19T01:36:29.301Z,7.60
2019-05-19T01:37:54.739Z,6.70
2019-05-19T01:39:20.826Z,6.13
2019-05-19T01:40:46.411Z,7.30
2019-05-19T01:42:12.464Z,7.50
2019-05-19T01:43:38.109Z,6.40
2019-05-19T01:45:04.423Z,6.77
2019-05-19T01:46:30.136Z,7.03
2019-05-19T01:47:56.139Z,6.27
2019-05-19T01:49:21.852Z,7.67
2019-05-19T01:50:47.852Z,8.10
2019-05-19T01:52:13.363Z,7.20
2019-05-19T01:53:39.408Z,7.10
2019-05-19T01:55:05.022Z,9.77
2019-05-19T01:56:31.047Z,7.07
2019-05-19T01:57:56.519Z,7.63
2019-05-19T01:59:22.691Z,6.23
2019-05-19T02:00:48.235Z,7.67
2019-05-19T02:02:14.267Z,7.97
2019-05-19T02:03:39.887Z,7.33
2019-05-19T02:05:06.096Z,7.97
2019-05-19T02:06:31.644Z,9.43
2019-05-19T02:07:57.796Z,7.70
2019-05-19T02:09:23.220Z,7.60
2019-05-19T02:10:49.255Z,8.30
2019-05-19T02:12:14.757Z,7.43
2019-05-19T02:13:40.780Z,7.60
2019-05-19T02:15:06.729Z,7.70
2019-05-19T02:16:32.724Z,7.13
2019-05-19T02:17:58.219Z,8.50
2019-05-19T02:19:24.232Z,8.37
2019-05-19T02:20:49.681Z,6.83
2019-05-19T02:22:15.715Z,6.93
2019-05-19T02:23:41.219Z,8.37
2019-05-19T02:25:07.443Z,7.30
2019-05-19T02:26:32.913Z,8.23
2019-05-19T02:27:58.932Z,9.40
2019-05-19T02:29:24.389Z,8.20
2019-05-19T02:30:50.364Z,9.00
2019-05-19T02:32:15.885Z,9.40
2019-05-19T02:33:41.886Z,8.23
2019-05-19T02:35:07.858Z,7.33
2019-05-19T02:36:34.274Z,8.10
2019-05-19T02:37:59.813Z,8.00
2019-05-19T02:39:25.862Z,6.60
2019-05-19T02:40:55.345Z,8.20
2019-05-19T02:42:23.400Z,8.30
2019-05-19T02:43:50.819Z,7.90
2019-05-19T02:45:17.324Z,6.47
2019-05-19T02:46:43.691Z,7.20
2019-05-19T02:48:12.087Z,8.00
2019-05-19T02:49:38.227Z,8.17
2019-05-19T02:51:05.977Z,7.30
2019-05-19T02:52:33.068Z,8.07
2019-05-19T02:54:01.405Z,8.00
2019-05-19T02:55:27.556Z,7.63
2019-05-19T02:56:54.145Z,8.10
2019-05-19T02:58:20.631Z,6.97
2019-05-19T02:59:47.488Z,8.47
2019-05-19T03:01:12.948Z,7.97
2019-05-19T03:02:38.994Z,8.07
2019-05-19T03:04:04.600Z,7.57
2019-05-19T03:05:30.692Z,8.60
2019-05-19T03:06:56.260Z,8.30
2019-05-19T03:08:22.364Z,9.13
2019-05-19T03:09:47.829Z,6.63
2019-05-19T03:11:13.889Z,7.43
2019-05-19T03:12:39.472Z,8.00
2019-05-19T03:14:05.493Z,7.60
2019-05-19T03:15:30.959Z,6.73
2019-05-19T03:16:56.989Z,7.63
2019-05-19T03:18:22.492Z,6.33
2019-05-19T03:19:48.488Z,7.50
2019-05-19T03:21:14.072Z,7.40
2019-05-19T03:22:40.044Z,6.97
2019-05-19T03:24:05.761Z,6.83
2019-05-19T03:25:31.787Z,7.57
2019-05-19T03:26:57.282Z,7.27
2019-05-19T03:28:23.313Z,7.67
2019-05-19T03:29:53.856Z,5.93
2019-05-19T03:31:32.385Z,7.10
2019-05-19T03:33:01.004Z,5.70
2019-05-19T03:34:27.539Z,6.50
2019-05-19T03:35:52.960Z,6.63
2019-05-19T03:37:18.970Z,7.33
2019-05-19T03:38:44.602Z,5.43
2019-05-19T03:40:22.894Z,5.63
2019-05-19T03:41:48.382Z,5.07
2019-05-19T03:43:14.473Z,4.63
2019-05-19T03:44:39.973Z,4.43
2019-05-19T03:46:05.968Z,4.30
2019-05-19T03:47:31.437Z,3.97
2019-05-19T03:48:57.460Z,3.60
2019-05-19T03:50:22.923Z,4.70
2019-05-19T03:51:49.066Z,3.30
2019-05-19T03:53:14.483Z,2.93
2019-05-19T03:54:40.551Z,3.13
2019-05-19T03:56:06.161Z,3.00
2019-05-19T03:57:32.157Z,2.53
2019-05-19T03:58:57.633Z,2.50
2019-05-19T04:00:23.846Z,2.43
2019-05-19T04:01:49.335Z,2.40
2019-05-19T04:03:15.341Z,2.57
2019-05-19T04:04:40.804Z,2.50
2019-05-19T04:06:06.915Z,2.33
2019-05-19T04:07:32.442Z,3.07
2019-05-19T04:08:58.651Z,2.60
2019-05-19T04:10:24.085Z,3.23
2019-05-19T04:11:50.100Z,2.03
2019-05-19T04:13:15.564Z,2.10
2019-05-19T04:14:41.726Z,2.40
2019-05-19T04:16:07.210Z,2.63
2019-05-19T04:17:33.244Z,2.63
2019-05-19T04:19:01.173Z,2.00
2019-05-19T04:20:27.222Z,2.67
2019-05-19T04:21:52.695Z,2.37
2019-05-19T04:23:18.742Z,2.00
2019-05-19T04:24:45.935Z,2.47
2019-05-19T04:26:11.925Z,2.80
2019-05-19T04:27:37.611Z,1.83
2019-05-19T04:29:03.617Z,2.00
2019-05-19T04:30:29.172Z,2.90
2019-05-19T04:31:55.160Z,4.17
2019-05-19T04:33:20.719Z,7.17
2019-05-19T04:34:46.783Z,6.57
2019-05-19T04:36:12.366Z,6.90
2019-05-19T04:37:38.407Z,7.80
2019-05-19T04:39:04.344Z,6.37
2019-05-19T04:40:32.829Z,6.17
2019-05-19T04:41:58.381Z,6.77
2019-05-19T04:43:24.449Z,7.10
2019-05-19T04:44:50.040Z,7.87
2019-05-19T04:46:16.036Z,7.30
2019-05-19T04:47:41.465Z,8.60
2019-05-19T04:49:07.458Z,6.63
2019-05-19T04:50:33.039Z,6.50
2019-05-19T04:52:06.761Z,6.53
2019-05-19T04:53:26.264Z,4.63
2019-05-19T04:54:52.382Z,3.67
2019-05-19T04:56:19.883Z,3.70
2019-05-19T04:57:45.508Z,2.77
2019-05-19T04:59:10.927Z,2.60
2019-05-19T05:00:37.050Z,2.90
2019-05-19T05:02:05.826Z,2.97
2019-05-19T05:03:34.601Z,3.57
2019-05-19T05:05:00.467Z,3.43
2019-05-19T05:06:26.482Z,4.93
2019-05-19T05:07:51.923Z,3.47
2019-05-19T05:09:18.053Z,3.13
2019-05-19T05:10:43.591Z,3.50
2019-05-19T05:12:09.735Z,3.50
2019-05-19T05:13:35.268Z,2.17
2019-05-19T05:15:01.308Z,2.90
2019-05-19T05:16:26.748Z,3.20
2019-05-19T05:17:52.779Z,2.50
2019-05-19T05:19:18.232Z,3.70
2019-05-19T05:20:44.383Z,3.47
2019-05-19T05:22:21.334Z,3.93
2019-05-19T05:23:37.584Z,4.30
2019-05-19T05:25:03.305Z,4.53
2019-05-19T05:26:29.533Z,5.20
2019-05-19T05:27:54.972Z,6.10
2019-05-19T05:29:20.951Z,8.30
2019-05-19T05:30:46.443Z,7.37
2019-05-19T05:32:12.420Z,8.20
2019-05-19T05:33:37.979Z,6.83
2019-05-19T05:35:04.280Z,5.87
2019-05-19T05:36:29.764Z,5.33
2019-05-19T05:37:55.929Z,4.60
2019-05-19T05:39:21.477Z,5.23
2019-05-19T05:40:47.995Z,5.73
2019-05-19T05:42:13.454Z,4.17
2019-05-19T05:43:46.579Z,3.80
2019-05-19T05:45:12.404Z,4.10
2019-05-19T05:46:45.140Z,4.80
2019-05-19T05:48:14.164Z,5.03
2019-05-19T05:49:43.544Z,5.67
2019-05-19T05:51:12.372Z,5.77
2019-05-19T05:52:39.177Z,4.60
2019-05-19T05:54:06.227Z,5.03
2019-05-19T05:55:32.324Z,4.00
2019-05-19T05:56:57.839Z,4.93
2019-05-19T05:58:23.906Z,5.13
2019-05-19T05:59:49.428Z,5.50
2019-05-19T06:01:15.533Z,5.80
2019-05-19T06:02:41.009Z,5.70
2019-05-19T06:04:07.141Z,5.77
2019-05-19T06:05:32.636Z,5.83
2019-05-19T06:06:58.776Z,6.80
2019-05-19T06:08:24.293Z,6.73
2019-05-19T06:09:50.407Z,5.23
2019-05-19T06:11:15.928Z,6.47
2019-05-19T06:12:41.923Z,6.27
2019-05-19T06:14:07.639Z,6.37
2019-05-19T06:15:33.637Z,5.83
2019-05-19T06:16:59.276Z,5.33
2019-05-19T06:18:25.276Z,5.07
2019-05-19T06:19:50.768Z,4.50
2019-05-19T06:21:16.828Z,4.83
2019-05-19T06:22:54.989Z,6.27
2019-05-19T06:24:09.923Z,6.23
2019-05-19T06:25:35.730Z,5.73
2019-05-19T06:27:01.760Z,4.87
2019-05-19T06:28:27.253Z,5.37
2019-05-19T06:29:53.401Z,4.70
2019-05-19T06:31:18.913Z,5.70
2019-05-19T06:32:47.862Z,5.07
2019-05-19T06:34:13.349Z,5.30
2019-05-19T06:35:39.371Z,6.17
2019-05-19T06:37:05.145Z,6.87
2019-05-19T06:38:31.141Z,6.07
2019-05-19T06:39:56.651Z,6.83
2019-05-19T06:41:22.663Z,6.83
2019-05-19T06:42:48.311Z,7.20
2019-05-19T06:44:14.308Z,6.30
2019-05-19T06:45:39.796Z,6.47
2019-05-19T06:47:05.949Z,6.00
2019-05-19T06:48:31.373Z,6.37
2019-05-19T06:49:57.374Z,6.33
2019-05-19T06:51:22.815Z,6.57
2019-05-19T06:52:48.842Z,6.87
2019-05-19T06:54:14.271Z,7.77
2019-05-19T06:55:43.527Z,7.70
2019-05-19T06:57:09.181Z,8.77
2019-05-19T06:58:36.463Z,8.70
2019-05-19T07:00:01.929Z,8.17
2019-05-19T07:01:28.060Z,7.83
2019-05-19T07:02:53.562Z,7.20
2019-05-19T07:04:19.575Z,8.90
2019-05-19T07:05:45.033Z,7.17
2019-05-19T07:07:11.182Z,8.00
2019-05-19T07:08:36.794Z,8.27
2019-05-19T07:10:03.011Z,8.97
2019-05-19T07:11:30.408Z,8.73
2019-05-19T07:12:56.475Z,7.63
2019-05-19T07:14:23.143Z,7.50
2019-05-19T07:15:49.173Z,7.47
2019-05-19T07:17:14.633Z,7.57
2019-05-19T07:18:41.615Z,6.80
2019-05-19T07:20:22.378Z,7.70
2019-05-19T07:21:48.366Z,7.10
2019-05-19T07:23:27.231Z,6.43
2019-05-19T07:24:41.637Z,5.43
2019-05-19T07:26:09.779Z,5.03
2019-05-19T07:27:35.832Z,4.90
2019-05-19T07:29:01.390Z,4.43
2019-05-19T07:30:27.432Z,4.57
2019-05-19T07:31:52.944Z,5.10
2019-05-19T07:33:19.017Z,4.57
2019-05-19T07:34:44.507Z,4.47
2019-05-19T07:36:12.285Z,5.60
2019-05-19T07:37:39.159Z,4.97
2019-05-19T07:39:06.516Z,5.13
2019-05-19T07:40:32.057Z,4.80
2019-05-19T07:41:58.052Z,4.53
2019-05-19T07:43:23.672Z,5.50
2019-05-19T07:44:49.764Z,4.93
2019-05-19T07:46:15.214Z,5.37
2019-05-19T07:47:43.163Z,7.60
2019-05-19T07:49:11.362Z,7.77
2019-05-19T07:50:38.249Z,8.33
2019-05-19T07:52:04.082Z,6.30
2019-05-19T07:53:42.167Z,7.53
2019-05-19T07:54:57.247Z,5.57
2019-05-19T07:56:23.250Z,5.97
2019-05-19T07:57:48.763Z,5.37
2019-05-19T07:59:14.952Z,6.03
2019-05-19T08:00:40.544Z,6.07
2019-05-19T08:02:06.541Z,4.70
2019-05-19T08:03:32.095Z,5.40
2019-05-19T08:04:58.224Z,4.50
2019-05-19T08:06:23.853Z,4.53
2019-05-19T08:07:49.913Z,5.10
2019-05-19T08:09:15.407Z,4.50
2019-05-19T08:10:43.996Z,5.20
2019-05-19T08:12:09.565Z,4.87
2019-05-19T08:13:35.591Z,5.10
2019-05-19T08:15:01.023Z,5.57
2019-05-19T08:16:27.045Z,5.00
2019-05-19T08:17:52.930Z,4.77
2019-05-19T08:19:19.020Z,5.50
2019-05-19T08:20:44.645Z,4.70
2019-05-19T08:22:11.059Z,5.20
2019-05-19T08:23:36.644Z,7.70
2019-05-19T08:25:06.541Z,4.60
2019-05-19T08:26:32.128Z,4.73
2019-05-19T08:28:07.457Z,4.73
2019-05-19T08:29:25.472Z,4.47
2019-05-19T08:30:51.551Z,5.50
2019-05-19T08:32:17.124Z,6.07
2019-05-19T08:33:43.625Z,5.07
2019-05-19T08:35:09.132Z,5.00
2019-05-19T08:36:35.248Z,4.70
2019-05-19T08:38:00.831Z,4.80
2019-05-19T08:39:26.944Z,4.83
2019-05-19T08:40:52.469Z,5.30
2019-05-19T08:42:18.539Z,5.27
2019-05-19T08:43:44.182Z,4.73
2019-05-19T08:45:10.659Z,5.80
2019-05-19T08:46:36.161Z,5.20
2019-05-19T08:48:02.128Z,7.13
2019-05-19T08:49:27.686Z,5.60
2019-05-19T08:50:53.767Z,4.80
2019-05-19T08:52:19.234Z,4.93
2019-05-19T08:53:45.889Z,6.50
2019-05-19T08:55:11.771Z,4.90
2019-05-19T08:56:37.800Z,5.07
2019-05-19T08:58:03.394Z,5.30
2019-05-19T08:59:29.508Z,4.87
2019-05-19T09:00:54.964Z,6.40
2019-05-19T09:02:20.941Z,6.13
2019-05-19T09:03:46.446Z,5.47
2019-05-19T09:05:12.573Z,6.70
2019-05-19T09:06:38.031Z,6.00
2019-05-19T09:08:04.057Z,5.87
2019-05-19T09:09:32.511Z,6.37
2019-05-19T09:10:58.611Z,5.47
2019-05-19T09:12:24.085Z,5.87
2019-05-19T09:13:50.481Z,6.30
2019-05-19T09:15:19.052Z,5.63
2019-05-19T09:16:45.247Z,6.13
2019-05-19T09:18:10.825Z,6.10
2019-05-19T09:19:36.881Z,6.73
2019-05-19T09:21:02.340Z,5.93
2019-05-19T09:22:33.237Z,6.30
2019-05-19T09:23:58.936Z,6.60
2019-05-19T09:25:25.281Z,5.50
2019-05-19T09:26:51.022Z,6.00
2019-05-19T09:28:17.213Z,6.70
2019-05-19T09:29:44.363Z,6.70
2019-05-19T09:31:10.418Z,6.23
2019-05-19T09:32:36.092Z,6.97
2019-05-19T09:34:02.501Z,6.10
2019-05-19T09:35:28.083Z,5.97
2019-05-19T09:36:54.103Z,5.80
2019-05-19T09:38:19.575Z,7.17
2019-05-19T09:39:45.743Z,7.40
2019-05-19T09:41:11.225Z,5.80
2019-05-19T09:42:37.510Z,4.50
2019-05-19T09:44:03.372Z,4.60
2019-05-19T09:45:29.560Z,4.40
2019-05-19T09:46:55.108Z,3.70
2019-05-19T09:48:21.103Z,4.10
2019-05-19T09:49:46.764Z,3.17
2019-05-19T09:51:13.883Z,4.00
2019-05-19T09:52:42.713Z,4.30
2019-05-19T09:54:08.807Z,4.77
2019-05-19T09:55:34.384Z,3.30
2019-05-19T09:57:01.040Z,3.40
2019-05-19T09:58:26.520Z,3.33
2019-05-19T09:59:52.534Z,3.37
2019-05-19T10:01:17.999Z,3.30
2019-05-19T10:02:44.057Z,2.33
2019-05-19T10:04:09.545Z,3.57
2019-05-19T10:05:35.563Z,2.53
2019-05-19T10:07:01.521Z,3.80
2019-05-19T10:08:38.387Z,3.23
2019-05-19T10:10:09.543Z,2.40
2019-05-19T10:12:06.307Z,2.47
2019-05-19T10:13:37.702Z,4.33
2019-05-19T10:15:02.923Z,2.83
2019-05-19T10:16:29.443Z,2.77
2019-05-19T10:17:55.105Z,4.60
2019-05-19T10:19:21.408Z,4.07
2019-05-19T10:20:50.210Z,3.37
2019-05-19T10:22:15.144Z,2.97
2019-05-19T10:23:40.735Z,3.63
2019-05-19T10:25:21.598Z,2.80
2019-05-19T10:26:38.821Z,3.33
2019-05-19T10:28:05.122Z,4.30
2019-05-19T10:29:30.836Z,3.43
2019-05-19T10:30:57.087Z,4.47
2019-05-19T10:32:22.926Z,2.87
2019-05-19T10:33:49.489Z,3.70
2019-05-19T10:35:15.691Z,4.27
2019-05-19T10:36:42.187Z,2.67
2019-05-19T10:38:07.792Z,3.37
2019-05-19T10:39:34.094Z,3.70
2019-05-19T10:40:59.857Z,3.30
2019-05-19T10:42:26.622Z,3.23
2019-05-19T10:44:00.830Z,4.23
2019-05-19T10:45:27.258Z,4.37
2019-05-19T10:46:53.245Z,2.93
2019-05-19T10:48:19.363Z,2.63
2019-05-19T10:49:45.125Z,3.27
2019-05-19T10:51:11.183Z,2.43
2019-05-19T10:52:36.948Z,2.93
2019-05-19T10:54:03.382Z,2.70
2019-05-19T10:55:36.645Z,2.90
2019-05-19T10:56:57.230Z,2.40
2019-05-19T10:58:24.356Z,1.93
2019-05-19T10:59:50.800Z,2.40
2019-05-19T11:01:16.718Z,3.03
2019-05-19T11:02:42.819Z,3.43
2019-05-19T11:04:08.725Z,2.40
2019-05-19T11:05:34.821Z,3.27
2019-05-19T11:07:00.280Z,2.97
2019-05-19T11:08:26.600Z,2.30
2019-05-19T11:09:52.380Z,3.17
2019-05-19T11:11:19.008Z,2.43
2019-05-19T11:12:46.908Z,3.17
2019-05-19T11:14:12.300Z,2.47
2019-05-19T11:15:37.895Z,2.07
2019-05-19T11:17:06.368Z,2.33
2019-05-19T11:18:31.828Z,2.13
2019-05-19T11:19:57.836Z,3.10
2019-05-19T11:21:23.260Z,2.30
2019-05-19T11:22:49.339Z,2.73
2019-05-19T11:24:14.909Z,2.07
2019-05-19T11:25:50.994Z,2.50
2019-05-19T11:27:10.066Z,2.50
2019-05-19T11:28:35.782Z,2.10
2019-05-19T11:30:01.279Z,2.70
2019-05-19T11:31:27.436Z,2.13
2019-05-19T11:32:52.980Z,1.70
2019-05-19T11:34:20.538Z,2.53
2019-05-19T11:35:46.094Z,2.50
2019-05-19T11:37:12.260Z,2.20
2019-05-19T11:38:37.902Z,2.67
2019-05-19T11:40:04.033Z,2.90
2019-05-19T11:41:29.490Z,2.00
2019-05-19T11:42:55.547Z,2.50
2019-05-19T11:44:21.064Z,2.57
2019-05-19T11:45:47.168Z,2.13
2019-05-19T11:47:12.637Z,2.27
2019-05-19T11:48:38.643Z,1.90
2019-05-19T11:50:04.203Z,2.03
2019-05-19T11:51:31.455Z,2.53
2019-05-19T11:52:56.968Z,2.67
2019-05-19T11:54:23.188Z,2.93
2019-05-19T11:55:49.207Z,1.93
2019-05-19T11:57:15.220Z,2.17
2019-05-19T11:58:44.111Z,2.33
2019-05-19T12:00:10.358Z,3.00
2019-05-19T12:01:35.900Z,1.53
2019-05-19T12:03:02.119Z,2.63
2019-05-19T12:04:27.704Z,2.50
2019-05-19T12:05:53.995Z,2.00
2019-05-19T12:07:19.485Z,2.33
2019-05-19T12:08:45.463Z,2.45
2019-05-19T12:10:11.381Z,2.80
2019-05-19T12:11:37.414Z,2.63
2019-05-19T12:13:02.831Z,2.60
2019-05-19T12:14:28.883Z,2.20
2019-05-19T12:15:56.923Z,2.53
2019-05-19T12:17:22.420Z,2.53
2019-05-19T12:18:47.985Z,2.43
2019-05-19T12:20:14.369Z,3.00
2019-05-19T12:21:39.810Z,2.47
2019-05-19T12:23:06.162Z,1.83
2019-05-19T12:24:31.764Z,2.00
2019-05-19T12:25:58.299Z,2.43
2019-05-19T12:27:24.115Z,2.30
2019-05-19T12:28:50.152Z,2.80
2019-05-19T12:30:20.679Z,3.20
2019-05-19T12:31:49.584Z,3.63
2019-05-19T12:33:15.026Z,3.50
2019-05-19T12:34:41.022Z,4.70
2019-05-19T12:36:06.688Z,4.33
2019-05-19T12:37:32.713Z,3.13
2019-05-19T12:38:58.174Z,4.63
2019-05-19T12:40:26.799Z,2.70
2019-05-19T12:41:52.266Z,2.90
2019-05-19T12:43:21.067Z,4.33
2019-05-19T12:44:46.607Z,2.53
2019-05-19T12:46:23.872Z,3.00
2019-05-19T12:47:52.134Z,3.03
2019-05-19T12:49:18.173Z,3.63
2019-05-19T12:50:43.642Z,3.20
2019-05-19T12:52:09.707Z,3.30
2019-05-19T12:53:35.156Z,2.90
2019-05-19T12:55:01.183Z,2.40
2019-05-19T12:56:39.042Z,3.40
2019-05-19T12:57:54.321Z,2.33
2019-05-19T12:59:19.765Z,3.00
2019-05-19T13:00:45.754Z,2.80
2019-05-19T13:02:11.349Z,3.00
2019-05-19T13:03:37.431Z,3.20
2019-05-19T13:05:05.583Z,2.90
2019-05-19T13:06:30.731Z,2.87
2019-05-19T13:07:56.398Z,2.73
2019-05-19T13:09:22.743Z,3.60
2019-05-19T13:10:48.182Z,4.63
2019-05-19T13:12:14.248Z,2.80
2019-05-19T13:13:39.724Z,2.90
2019-05-19T13:15:06.399Z,3.00
2019-05-19T13:16:31.959Z,3.37
2019-05-19T13:17:57.988Z,2.83
2019-05-19T13:19:23.503Z,3.13
2019-05-19T13:20:49.524Z,3.03
2019-05-19T13:22:14.985Z,2.23
2019-05-19T13:23:43.090Z,2.87
2019-05-19T13:25:08.833Z,2.93
2019-05-19T13:26:34.894Z,3.00
2019-05-19T13:28:00.964Z,2.57
2019-05-19T13:29:27.051Z,2.80
2019-05-19T13:30:52.515Z,1.97
2019-05-19T13:32:18.523Z,2.40
2019-05-19T13:33:43.995Z,2.73
2019-05-19T13:35:10.245Z,2.57
2019-05-19T13:36:35.741Z,3.13
2019-05-19T13:38:01.855Z,2.90
2019-05-19T13:39:27.424Z,2.03
2019-05-19T13:40:53.459Z,2.20
2019-05-19T13:42:18.912Z,2.50
2019-05-19T13:43:45.010Z,1.87
2019-05-19T13:45:13.561Z,2.50
2019-05-19T13:46:39.635Z,2.43
2019-05-19T13:48:05.259Z,2.17
2019-05-19T13:49:31.406Z,3.43
2019-05-19T13:50:56.833Z,2.37
2019-05-19T13:52:22.853Z,2.70
2019-05-19T13:53:48.295Z,2.23
2019-05-19T13:55:14.435Z,1.70
2019-05-19T13:56:39.884Z,2.27
2019-05-19T13:58:05.940Z,2.83
2019-05-19T13:59:31.535Z,2.40
2019-05-19T14:00:57.704Z,2.00
2019-05-19T14:02:23.239Z,2.50
2019-05-19T14:03:52.017Z,2.37
2019-05-19T14:05:16.874Z,2.70
2019-05-19T14:06:42.858Z,3.00
2019-05-19T14:08:08.415Z,3.00
2019-05-19T14:09:34.478Z,2.30
2019-05-19T14:10:59.947Z,3.43
2019-05-19T14:12:26.065Z,3.27
2019-05-19T14:13:51.575Z,2.97
2019-05-19T14:15:17.645Z,3.17
2019-05-19T14:16:45.229Z,2.90
2019-05-19T14:18:11.241Z,2.90
2019-05-19T14:19:36.756Z,2.63
2019-05-19T14:21:02.724Z,3.63
2019-05-19T14:22:28.186Z,2.70
2019-05-19T14:23:54.280Z,3.13
2019-05-19T14:25:19.808Z,2.50
2019-05-19T14:26:45.795Z,2.67
2019-05-19T14:28:11.299Z,2.70
2019-05-19T14:29:37.408Z,2.60
2019-05-19T14:31:02.950Z,3.70
2019-05-19T14:32:29.117Z,3.77
2019-05-19T14:33:54.601Z,3.10
2019-05-19T14:35:20.660Z,3.43
2019-05-19T14:36:46.036Z,2.87
2019-05-19T14:38:12.080Z,3.03
2019-05-19T14:39:37.556Z,3.57
2019-05-19T14:41:03.739Z,3.23
2019-05-19T14:42:46.672Z,2.90
2019-05-19T14:44:12.224Z,3.53
2019-05-19T14:45:38.268Z,3.30
2019-05-19T14:47:03.821Z,3.67
2019-05-19T14:48:29.878Z,2.80
2019-05-19T14:49:55.423Z,2.93
2019-05-19T14:51:21.618Z,2.83
2019-05-19T14:52:47.467Z,3.30
2019-05-19T14:54:13.503Z,2.77
2019-05-19T14:55:39.021Z,2.83
2019-05-19T14:57:05.168Z,2.53
2019-05-19T14:58:30.675Z,2.90
2019-05-19T14:59:56.699Z,2.93
2019-05-19T15:01:22.131Z,3.37
2019-05-19T15:02:48.155Z,3.80
2019-05-19T15:04:13.898Z,2.97
2019-05-19T15:05:39.967Z,2.63
2019-05-19T15:07:05.702Z,2.80
2019-05-19T15:08:31.666Z,2.63
2019-05-19T15:09:57.312Z,3.00
2019-05-19T15:11:23.413Z,2.40
2019-05-19T15:12:48.840Z,2.90
2019-05-19T15:14:17.820Z,2.40
2019-05-19T15:15:43.408Z,2.30
2019-05-19T15:17:09.427Z,2.50
2019-05-19T15:18:34.876Z,2.50
2019-05-19T15:20:00.928Z,2.13
2019-05-19T15:21:26.543Z,3.00
2019-05-19T15:22:52.647Z,1.80
2019-05-19T15:24:18.115Z,2.27
2019-05-19T15:25:44.183Z,2.30
2019-05-19T15:27:09.791Z,2.50
2019-05-19T15:28:35.852Z,2.73
2019-05-19T15:30:12.246Z,2.30
2019-05-19T15:31:29.551Z,2.00
2019-05-19T15:32:56.105Z,2.30
2019-05-19T15:34:22.271Z,2.27
2019-05-19T15:35:47.785Z,2.93
2019-05-19T15:37:13.824Z,1.63
2019-05-19T15:38:39.355Z,2.50
2019-05-19T15:40:06.062Z,2.77
2019-05-19T15:41:31.588Z,2.50
2019-05-19T15:42:57.647Z,2.50
2019-05-19T15:44:28.124Z,2.80
2019-05-19T15:45:54.219Z,2.40
2019-05-19T15:47:19.915Z,2.57
2019-05-19T15:48:46.011Z,2.13
2019-05-19T15:50:11.676Z,3.07
2019-05-19T15:51:39.245Z,2.77
2019-05-19T15:53:07.483Z,2.03
2019-05-19T15:54:37.459Z,3.50
2019-05-19T15:56:05.872Z,2.07
2019-05-19T15:57:32.105Z,3.30
2019-05-19T15:59:00.249Z,3.00
2019-05-19T16:00:26.296Z,2.53
2019-05-19T16:01:51.824Z,3.07
2019-05-19T16:03:20.672Z,2.90
2019-05-19T16:04:49.208Z,3.30
2019-05-19T16:06:15.385Z,2.90
2019-05-19T16:07:40.917Z,3.00
2019-05-19T16:09:07.985Z,2.83
2019-05-19T16:10:34.693Z,4.37
2019-05-19T16:12:00.724Z,2.67
2019-05-19T16:13:26.427Z,2.93
2019-05-19T16:14:53.507Z,3.70
2019-05-19T16:16:20.436Z,2.90
2019-05-19T16:17:46.575Z,3.30
2019-05-19T16:19:12.122Z,4.00
2019-05-19T16:20:38.136Z,3.30
2019-05-19T16:22:06.673Z,3.30
2019-05-19T16:23:33.662Z,3.20
2019-05-19T16:24:59.173Z,3.57
2019-05-19T16:26:25.147Z,2.63
2019-05-19T16:27:50.631Z,3.97
2019-05-19T16:29:16.631Z,3.43
2019-05-19T16:30:48.446Z,4.17
2019-05-19T16:32:14.550Z,3.30
2019-05-19T16:33:40.083Z,3.60
2019-05-19T16:35:07.360Z,3.70
2019-05-19T16:36:34.376Z,3.40
2019-05-19T16:38:02.243Z,3.27
2019-05-19T16:39:27.995Z,3.27
2019-05-19T16:40:54.008Z,4.03
2019-05-19T16:42:19.460Z,4.03
2019-05-19T16:43:45.587Z,3.90
2019-05-19T16:45:13.600Z,4.50
2019-05-19T16:46:39.763Z,3.50
2019-05-19T16:48:06.771Z,4.40
2019-05-19T16:49:32.768Z,3.60
2019-05-19T16:50:58.265Z,4.30
2019-05-19T16:52:24.317Z,3.67
2019-05-19T16:53:51.994Z,3.70
2019-05-19T16:55:25.908Z,3.70
2019-05-19T16:56:51.380Z,4.57
2019-05-19T16:58:21.097Z,4.57
2019-05-19T16:59:44.787Z,3.40
2019-05-19T17:01:10.833Z,3.90
2019-05-19T17:02:36.387Z,4.60
2019-05-19T17:04:02.469Z,4.53
2019-05-19T17:05:28.011Z,3.60
2019-05-19T17:06:54.367Z,5.70
2019-05-19T17:08:19.895Z,3.70
2019-05-19T17:09:46.001Z,3.43
2019-05-19T17:11:18.422Z,4.60
2019-05-19T17:12:39.155Z,3.90
2019-05-19T17:14:04.765Z,4.03
2019-05-19T17:15:30.911Z,3.80
2019-05-19T17:16:56.511Z,3.17
2019-05-19T17:18:22.669Z,4.17
2019-05-19T17:19:48.095Z,4.80
2019-05-19T17:21:14.295Z,3.17
2019-05-19T17:22:39.825Z,4.30
2019-05-19T17:24:06.064Z,4.13
2019-05-19T17:25:31.662Z,4.60
2019-05-19T17:26:57.721Z,4.73
2019-05-19T17:28:23.153Z,4.60
2019-05-19T17:29:49.186Z,5.27
2019-05-19T17:31:14.633Z,4.07
2019-05-19T17:32:40.903Z,3.87
2019-05-19T17:34:06.573Z,5.47
2019-05-19T17:35:32.699Z,4.50
2019-05-19T17:36:58.239Z,4.00
2019-05-19T17:38:24.291Z,4.33
2019-05-19T17:39:49.789Z,5.13
2019-05-19T17:41:15.811Z,5.00
2019-05-19T17:42:49.770Z,6.07
2019-05-19T17:44:15.900Z,6.07
2019-05-19T17:45:41.381Z,5.07
2019-05-19T17:47:07.523Z,5.43
2019-05-19T17:48:32.964Z,4.87
2019-05-19T17:49:59.043Z,5.63
2019-05-19T17:51:24.530Z,3.53
2019-05-19T17:52:50.677Z,4.30
2019-05-19T17:54:16.197Z,5.40
2019-05-19T17:55:43.139Z,4.50
2019-05-19T17:57:08.689Z,4.40
2019-05-19T17:58:35.119Z,5.60
2019-05-19T18:00:02.223Z,5.97
2019-05-19T18:01:28.267Z,5.10
2019-05-19T18:02:53.732Z,5.20
2019-05-19T18:04:19.758Z,6.33
2019-05-19T18:05:45.174Z,4.83
2019-05-19T18:07:11.353Z,5.20
2019-05-19T18:08:36.841Z,4.90
2019-05-19T18:10:02.908Z,5.60
2019-05-19T18:11:28.437Z,4.63
2019-05-19T18:12:54.487Z,5.37
2019-05-19T18:14:19.953Z,5.00
2019-05-19T18:15:46.101Z,6.07
2019-05-19T18:17:11.635Z,5.30
2019-05-19T18:18:37.696Z,5.40
2019-05-19T18:20:03.198Z,5.43
2019-05-19T18:21:29.291Z,5.47
2019-05-19T18:22:54.792Z,5.50
2019-05-19T18:24:20.817Z,5.27
2019-05-19T18:25:46.304Z,5.60
2019-05-19T18:27:12.475Z,5.83
2019-05-19T18:28:38.156Z,6.40
2019-05-19T18:30:04.279Z,6.37
2019-05-19T18:31:31.235Z,6.10
2019-05-19T18:32:57.443Z,6.57
2019-05-19T18:34:23.764Z,4.80
2019-05-19T18:35:49.947Z,5.63
2019-05-19T18:37:17.884Z,5.57
2019-05-19T18:38:43.929Z,5.40
2019-05-19T18:40:09.805Z,5.50
2019-05-19T18:41:36.023Z,6.17
2019-05-19T18:43:01.528Z,4.57
2019-05-19T18:44:27.527Z,5.50
2019-05-19T18:45:52.989Z,6.17
2019-05-19T18:47:19.181Z,6.27
2019-05-19T18:48:44.640Z,5.30
2019-05-19T18:50:10.937Z,5.83
2019-05-19T18:51:36.583Z,6.50
2019-05-19T18:53:02.791Z,7.27
2019-05-19T18:54:28.305Z,8.50
2019-05-19T18:55:54.397Z,6.27
2019-05-19T18:57:19.889Z,6.93
2019-05-19T18:58:45.912Z,6.07
2019-05-19T19:00:11.723Z,5.43
2019-05-19T19:01:37.934Z,6.30
2019-05-19T19:03:03.584Z,6.13
2019-05-19T19:04:29.615Z,6.07
2019-05-19T19:05:55.080Z,6.50
2019-05-19T19:07:22.167Z,6.77
2019-05-19T19:08:47.928Z,8.77